createdAt,value
2019-04-29T00:02:36.643Z,45.20
2019-04-29T00:05:07.354Z,45.20
2019-04-29T00:07:36.127Z,45.90
2019-04-29T00:10:07.812Z,45.30
2019-04-29T00:12:36.510Z,45.50
2019-04-29T00:15:14.023Z,45.40
2019-04-29T00:17:44.322Z,46.00
2019-04-29T00:20:23.999Z,45.50
2019-04-29T00:22:52.696Z,45.50
2019-04-29T00:25:21.400Z,45.40
2019-04-29T00:27:50.081Z,45.60
2019-04-29T00:30:20.351Z,45.80
2019-04-29T00:32:49.069Z,45.80
2019-04-29T00:35:17.773Z,45.90
2019-04-29T00:38:04.262Z,45.80
2019-04-29T00:40:37.563Z,45.90
2019-04-29T00:43:07.972Z,45.80
2019-04-29T00:45:36.794Z,45.80
2019-04-29T00:48:05.634Z,45.90
2019-04-29T00:50:34.336Z,45.90
2019-04-29T00:53:03.001Z,45.90
2019-04-29T00:55:33.273Z,45.70
2019-04-29T00:58:01.954Z,45.70
2019-04-29T01:00:32.813Z,46.00
2019-04-29T01:03:01.587Z,45.90
2019-04-29T01:05:30.491Z,45.90
2019-04-29T01:07:59.171Z,45.90
2019-04-29T01:10:27.889Z,46.00
2019-04-29T01:12:56.604Z,45.90
2019-04-29T01:15:25.277Z,45.90
2019-04-29T01:17:54.123Z,46.30
2019-04-29T01:20:22.939Z,46.40
2019-04-29T01:22:51.738Z,46.40
2019-04-29T01:25:20.413Z,46.20
2019-04-29T01:27:50.669Z,46.20
2019-04-29T01:30:42.114Z,46.20
2019-04-29T01:33:11.071Z,46.30
2019-04-29T01:35:39.729Z,46.20
2019-04-29T01:38:08.408Z,47.00
2019-04-29T01:40:41.809Z,46.70
2019-04-29T01:43:10.502Z,46.50
2019-04-29T01:45:39.174Z,46.70
2019-04-29T01:48:10.574Z,46.70
2019-04-29T01:50:39.524Z,46.60
2019-04-29T01:53:08.258Z,46.40
2019-04-29T01:55:36.980Z,46.30
2019-04-29T01:58:05.703Z,46.40
2019-04-29T02:00:34.362Z,46.10
2019-04-29T02:03:03.064Z,46.20
2019-04-29T02:05:31.793Z,46.20
2019-04-29T02:08:00.469Z,46.40
2019-04-29T02:10:33.284Z,46.40
2019-04-29T02:13:02.303Z,46.20
2019-04-29T02:15:31.008Z,46.10
2019-04-29T02:17:59.805Z,46.20
2019-04-29T02:20:28.511Z,46.30
2019-04-29T02:23:01.212Z,46.10
2019-04-29T02:25:36.955Z,46.40
2019-04-29T02:28:05.615Z,46.30
2019-04-29T02:30:43.683Z,46.60
2019-04-29T02:33:12.354Z,46.60
2019-04-29T02:35:41.047Z,46.70
2019-04-29T02:38:11.330Z,46.60
2019-04-29T02:40:57.564Z,46.80
2019-04-29T02:43:33.991Z,46.50
2019-04-29T02:46:02.661Z,46.60
2019-04-29T02:48:34.519Z,46.70
2019-04-29T02:51:01.944Z,47.00
2019-04-29T02:53:30.651Z,47.10
2019-04-29T02:56:00.619Z,47.00
2019-04-29T02:58:39.925Z,47.60
2019-04-29T03:01:21.842Z,46.90
2019-04-29T03:03:57.567Z,46.60
2019-04-29T03:06:26.239Z,46.80
2019-04-29T03:08:55.146Z,46.80
2019-04-29T03:11:24.128Z,46.70
2019-04-29T03:13:52.839Z,46.80
2019-04-29T03:16:21.804Z,46.40
2019-04-29T03:18:52.055Z,46.40
2019-04-29T03:21:22.343Z,46.40
2019-04-29T03:23:52.859Z,46.50
2019-04-29T03:26:21.544Z,46.50
2019-04-29T03:28:50.205Z,46.90
2019-04-29T03:31:18.916Z,47.00
2019-04-29T03:33:47.640Z,47.00
2019-04-29T03:36:16.347Z,47.20
2019-04-29T03:38:45.077Z,47.40
2019-04-29T03:41:13.784Z,47.20
2019-04-29T03:43:42.517Z,47.00
2019-04-29T03:46:11.204Z,46.90
2019-04-29T03:48:39.925Z,46.90
2019-04-29T03:51:08.705Z,47.00
2019-04-29T03:53:37.436Z,47.20
2019-04-29T03:56:07.781Z,47.10
2019-04-29T03:58:37.189Z,47.00
2019-04-29T04:01:10.023Z,46.70
2019-04-29T04:03:40.283Z,46.80
2019-04-29T04:06:13.729Z,46.70
2019-04-29T04:09:04.338Z,46.70
2019-04-29T04:11:16.955Z,46.90
2019-04-29T04:13:45.633Z,46.70
2019-04-29T04:16:16.075Z,47.20
2019-04-29T04:18:44.750Z,46.90
2019-04-29T04:21:13.520Z,46.70
2019-04-29T04:23:42.190Z,46.80
2019-04-29T04:26:11.048Z,47.00
2019-04-29T04:28:39.803Z,47.00
2019-04-29T04:31:08.574Z,47.20
2019-04-29T04:33:37.236Z,47.30
2019-04-29T04:36:05.937Z,47.30
2019-04-29T04:38:34.597Z,47.30
2019-04-29T04:41:04.844Z,47.50
2019-04-29T04:43:33.608Z,47.20
2019-04-29T04:46:02.395Z,47.40
2019-04-29T04:48:31.092Z,47.50
2019-04-29T04:50:59.774Z,47.20
2019-04-29T04:53:28.474Z,47.40
2019-04-29T04:55:58.747Z,47.40
2019-04-29T04:58:27.419Z,47.30
2019-04-29T05:00:57.853Z,48.10
2019-04-29T05:03:26.571Z,47.90
2019-04-29T05:05:55.332Z,47.30
2019-04-29T05:08:23.996Z,48.10
2019-04-29T05:10:52.682Z,48.00
2019-04-29T05:13:28.120Z,47.30
2019-04-29T05:15:51.771Z,48.10
2019-04-29T05:18:20.472Z,48.00
2019-04-29T05:20:49.138Z,47.30
2019-04-29T05:23:17.942Z,48.00
2019-04-29T05:25:46.621Z,47.20
2019-04-29T05:28:15.307Z,47.30
2019-04-29T05:30:43.981Z,48.10
2019-04-29T05:33:12.673Z,48.00
2019-04-29T05:35:56.884Z,48.10
2019-04-29T05:38:26.675Z,47.30
2019-04-29T05:40:56.996Z,47.40
2019-04-29T05:43:36.261Z,48.20
2019-04-29T05:46:09.491Z,47.50
2019-04-29T05:48:38.188Z,47.60
2019-04-29T05:51:17.712Z,47.90
2019-04-29T05:54:03.232Z,47.80
2019-04-29T05:56:32.258Z,48.00
2019-04-29T05:59:00.961Z,48.10
2019-04-29T06:01:31.170Z,48.40
2019-04-29T06:03:59.900Z,48.30
2019-04-29T06:06:28.845Z,48.70
2019-04-29T06:08:57.531Z,48.80
2019-04-29T06:11:26.217Z,48.90
2019-04-29T06:13:54.915Z,48.90
2019-04-29T06:16:23.579Z,49.10
2019-04-29T06:18:59.802Z,49.20
2019-04-29T06:21:22.669Z,49.10
2019-04-29T06:23:54.447Z,49.00
2019-04-29T06:26:21.849Z,49.00
2019-04-29T06:28:50.599Z,49.20
2019-04-29T06:31:19.339Z,49.20
2019-04-29T06:33:48.031Z,49.20
2019-04-29T06:36:16.703Z,49.30
2019-04-29T06:38:45.553Z,49.40
2019-04-29T06:41:14.227Z,49.50
2019-04-29T06:43:43.213Z,49.40
2019-04-29T06:46:11.883Z,49.60
2019-04-29T06:48:40.555Z,49.70
2019-04-29T06:51:09.465Z,49.70
2019-04-29T06:53:38.160Z,49.70
2019-04-29T06:56:09.169Z,49.90
2019-04-29T06:58:38.422Z,49.90
2019-04-29T07:01:07.662Z,50.10
2019-04-29T07:03:36.390Z,50.20
2019-04-29T07:06:05.302Z,50.20
2019-04-29T07:08:33.995Z,50.10
2019-04-29T07:11:03.139Z,50.80
2019-04-29T07:13:32.031Z,50.40
2019-04-29T07:16:00.727Z,50.20
2019-04-29T07:18:29.707Z,50.50
2019-04-29T07:20:58.915Z,50.60
2019-04-29T07:23:27.664Z,50.80
2019-04-29T07:25:56.363Z,50.70
2019-04-29T07:28:25.110Z,50.70
2019-04-29T07:31:02.858Z,50.50
2019-04-29T07:33:24.592Z,51.00
2019-04-29T07:35:53.740Z,50.50
2019-04-29T07:38:22.429Z,50.00
2019-04-29T07:40:51.409Z,49.60
2019-04-29T07:43:20.173Z,49.90
2019-04-29T07:45:50.456Z,49.70
2019-04-29T07:48:19.129Z,49.60
2019-04-29T07:50:47.835Z,49.90
2019-04-29T07:53:16.536Z,50.00
2019-04-29T07:55:45.245Z,50.20
2019-04-29T07:58:13.972Z,49.80
2019-04-29T08:00:44.546Z,49.70
2019-04-29T08:03:13.354Z,49.50
2019-04-29T08:05:42.551Z,49.50
2019-04-29T08:08:11.732Z,49.20
2019-04-29T08:10:53.673Z,49.30
2019-04-29T08:13:12.844Z,49.00
2019-04-29T08:15:43.498Z,48.90
2019-04-29T08:18:16.161Z,48.70
2019-04-29T08:20:42.392Z,48.30
2019-04-29T08:23:11.178Z,48.30
2019-04-29T08:25:39.871Z,47.90
2019-04-29T08:28:08.553Z,47.80
2019-04-29T08:30:37.250Z,47.80
2019-04-29T08:33:07.597Z,47.50
2019-04-29T08:35:37.076Z,47.10
2019-04-29T08:38:07.340Z,47.20
2019-04-29T08:40:36.018Z,47.00
2019-04-29T08:43:22.687Z,46.90
2019-04-29T08:45:55.450Z,46.90
2019-04-29T08:48:24.158Z,46.30
2019-04-29T08:50:52.884Z,46.50
2019-04-29T08:53:21.557Z,46.30
2019-04-29T08:55:50.263Z,46.10
2019-04-29T08:58:19.163Z,45.60
2019-04-29T09:00:51.443Z,45.60
2019-04-29T09:03:18.883Z,45.20
2019-04-29T09:06:04.330Z,44.50
2019-04-29T09:08:19.296Z,44.40
2019-04-29T09:10:48.148Z,43.90
2019-04-29T09:13:16.854Z,44.10
2019-04-29T09:15:45.532Z,44.20
2019-04-29T09:18:14.256Z,43.70
2019-04-29T09:20:43.839Z,43.80
2019-04-29T09:23:14.146Z,43.70
2019-04-29T09:26:02.833Z,43.50
2019-04-29T09:28:29.850Z,43.20
2019-04-29T09:30:58.721Z,42.70
2019-04-29T09:33:27.429Z,42.70
2019-04-29T09:35:56.239Z,43.30
2019-04-29T09:38:25.119Z,42.80
2019-04-29T09:40:59.706Z,42.60
2019-04-29T09:43:43.605Z,42.70
2019-04-29T09:46:18.537Z,42.60
2019-04-29T09:48:47.066Z,42.90
2019-04-29T09:51:17.804Z,42.70
2019-04-29T09:53:46.178Z,42.70
2019-04-29T09:56:14.837Z,43.70
2019-04-29T09:58:43.695Z,43.00
2019-04-29T10:01:28.861Z,42.70
2019-04-29T10:03:59.142Z,42.70
2019-04-29T10:06:31.968Z,43.00
2019-04-29T10:09:00.683Z,41.80
2019-04-29T10:11:29.399Z,41.50
2019-04-29T10:13:58.311Z,41.50
2019-04-29T10:16:31.638Z,40.90
2019-04-29T10:19:04.751Z,41.00
2019-04-29T10:21:31.247Z,40.50
2019-04-29T10:23:59.906Z,40.50
2019-04-29T10:26:28.628Z,40.60
2019-04-29T10:28:58.881Z,40.70
2019-04-29T10:31:27.570Z,40.80
2019-04-29T10:33:56.524Z,41.00
2019-04-29T10:36:26.339Z,41.10
2019-04-29T10:38:56.785Z,40.90
2019-04-29T10:41:40.226Z,41.10
2019-04-29T10:44:15.781Z,40.50
2019-04-29T10:47:02.273Z,40.30
2019-04-29T10:49:39.187Z,39.50
2019-04-29T10:52:06.366Z,39.70
2019-04-29T10:54:35.083Z,40.00
2019-04-29T10:57:04.047Z,40.30
2019-04-29T10:59:36.325Z,40.50
2019-04-29T11:02:29.868Z,40.00
2019-04-29T11:05:02.686Z,40.00
2019-04-29T11:07:33.180Z,39.40
2019-04-29T11:10:03.668Z,39.30
2019-04-29T11:12:33.085Z,39.20
2019-04-29T11:15:02.084Z,39.30
2019-04-29T11:17:31.192Z,39.40
2019-04-29T11:20:00.207Z,39.10
2019-04-29T11:22:33.994Z,39.40
2019-04-29T11:25:18.492Z,39.80
2019-04-29T11:27:51.742Z,40.00
2019-04-29T11:30:24.850Z,39.60
2019-04-29T11:33:11.314Z,39.70
2019-04-29T11:35:44.348Z,39.50
2019-04-29T11:38:14.148Z,40.00
2019-04-29T11:40:44.028Z,39.70
2019-04-29T11:43:15.612Z,39.00
2019-04-29T11:45:45.102Z,39.10
2019-04-29T11:48:13.846Z,38.50
2019-04-29T11:50:56.160Z,38.50
2019-04-29T11:53:24.960Z,37.90
2019-04-29T11:55:56.962Z,38.10
2019-04-29T11:58:34.611Z,38.50
2019-04-29T12:01:14.242Z,38.70
2019-04-29T12:03:44.517Z,39.00
2019-04-29T12:06:16.373Z,38.60
2019-04-29T12:08:48.126Z,38.30
2019-04-29T12:11:17.531Z,38.20
2019-04-29T12:13:47.768Z,38.10
2019-04-29T12:16:24.618Z,38.20
2019-04-29T12:18:53.012Z,37.80
2019-04-29T12:21:25.542Z,38.20
2019-04-29T12:23:55.201Z,38.10
2019-04-29T12:26:23.868Z,37.80
2019-04-29T12:28:52.536Z,37.90
2019-04-29T12:31:22.836Z,37.90
2019-04-29T12:33:55.930Z,37.60
2019-04-29T12:36:24.710Z,38.00
2019-04-29T12:38:54.958Z,38.00
2019-04-29T12:41:29.927Z,38.20
2019-04-29T12:43:59.484Z,37.80
2019-04-29T12:46:29.183Z,37.60
2019-04-29T12:48:57.898Z,37.80
2019-04-29T12:51:26.586Z,37.70
2019-04-29T12:53:55.254Z,37.20
2019-04-29T12:56:34.567Z,37.30
2019-04-29T12:59:03.322Z,36.70
2019-04-29T13:01:54.234Z,36.60
2019-04-29T13:04:29.652Z,36.40
2019-04-29T13:07:02.742Z,36.50
2019-04-29T13:09:49.116Z,36.40
2019-04-29T13:12:19.993Z,36.30
2019-04-29T13:15:12.540Z,36.40
2019-04-29T13:17:42.754Z,36.50
2019-04-29T13:20:13.182Z,36.40
2019-04-29T13:22:42.204Z,36.10
2019-04-29T13:25:11.187Z,36.20
2019-04-29T13:27:39.888Z,36.00
2019-04-29T13:30:16.000Z,36.10
2019-04-29T13:32:42.477Z,36.20
2019-04-29T13:35:12.757Z,36.30
2019-04-29T13:37:41.730Z,36.50
2019-04-29T13:40:10.833Z,36.80
2019-04-29T13:42:39.590Z,36.80
2019-04-29T13:45:13.463Z,36.20
2019-04-29T13:47:50.186Z,36.40
2019-04-29T13:50:38.025Z,36.80
2019-04-29T13:52:51.111Z,36.40
2019-04-29T13:55:46.162Z,36.30
2019-04-29T13:57:50.855Z,36.20
2019-04-29T14:00:24.523Z,36.20
2019-04-29T14:02:59.271Z,36.00
2019-04-29T14:05:32.347Z,35.60
2019-04-29T14:07:58.885Z,35.50
2019-04-29T14:10:27.646Z,35.70
2019-04-29T14:13:09.203Z,36.10
2019-04-29T14:15:29.697Z,35.60
2019-04-29T14:17:57.223Z,35.70
2019-04-29T14:20:25.874Z,35.70
2019-04-29T14:22:54.602Z,35.50
2019-04-29T14:25:23.263Z,35.70
2019-04-29T14:27:51.972Z,35.50
2019-04-29T14:30:22.116Z,35.50
2019-04-29T14:32:52.384Z,35.40
2019-04-29T14:35:22.663Z,35.60
2019-04-29T14:37:55.383Z,35.70
2019-04-29T14:40:22.167Z,35.60
2019-04-29T14:43:25.402Z,35.60
2019-04-29T14:45:56.687Z,35.40
2019-04-29T14:48:42.284Z,35.60
2019-04-29T14:51:04.815Z,36.20
2019-04-29T14:53:33.562Z,35.90
2019-04-29T14:56:02.239Z,36.20
2019-04-29T14:58:31.005Z,36.60
2019-04-29T15:01:01.836Z,36.30
2019-04-29T15:03:32.546Z,36.10
2019-04-29T15:06:01.338Z,35.30
2019-04-29T15:08:32.063Z,35.60
2019-04-29T15:11:04.120Z,35.70
2019-04-29T15:13:31.264Z,36.00
2019-04-29T15:16:14.073Z,36.60
2019-04-29T15:18:50.131Z,36.80
2019-04-29T15:21:31.967Z,36.90
2019-04-29T15:23:53.337Z,37.10
2019-04-29T15:26:22.418Z,37.10
2019-04-29T15:28:51.175Z,37.20
2019-04-29T15:31:21.486Z,37.20
2019-04-29T15:33:50.703Z,37.30
2019-04-29T15:36:19.446Z,37.20
2019-04-29T15:39:08.219Z,37.20
2019-04-29T15:41:18.786Z,37.10
2019-04-29T15:43:48.334Z,37.20
2019-04-29T15:46:17.839Z,37.50
2019-04-29T15:48:46.525Z,37.90
2019-04-29T15:51:15.224Z,37.90
2019-04-29T15:53:43.884Z,37.90
2019-04-29T15:56:27.733Z,38.20
2019-04-29T15:58:42.968Z,39.30
2019-04-29T16:01:17.137Z,38.80
2019-04-29T16:03:42.073Z,39.10
2019-04-29T16:08:47.514Z,39.40
2019-04-29T16:11:36.029Z,39.60
2019-04-29T16:14:10.216Z,39.40
2019-04-29T16:16:37.105Z,39.60
2019-04-29T16:19:08.224Z,39.40
2019-04-29T16:21:39.047Z,39.80
2019-04-29T16:24:24.983Z,40.30
2019-04-29T16:26:37.366Z,40.40
2019-04-29T16:29:12.317Z,40.70
2019-04-29T16:31:36.450Z,41.30
2019-04-29T16:34:05.449Z,41.30
2019-04-29T16:36:34.135Z,42.00
2019-04-29T16:39:03.060Z,42.40
2019-04-29T16:41:58.253Z,42.50
2019-04-29T16:44:34.682Z,42.80
2019-04-29T16:46:52.689Z,43.20
2019-04-29T16:49:22.874Z,43.60
2019-04-29T16:51:53.629Z,43.80
2019-04-29T16:54:27.870Z,43.80
2019-04-29T16:56:52.349Z,43.80
2019-04-29T16:59:21.170Z,43.70
2019-04-29T17:01:54.506Z,43.50
2019-04-29T17:04:27.120Z,43.70
2019-04-29T17:07:11.901Z,43.60
2019-04-29T17:09:44.119Z,43.60
2019-04-29T17:12:13.034Z,43.40
2019-04-29T17:15:02.244Z,43.40
2019-04-29T17:17:13.796Z,43.40
2019-04-29T17:19:42.590Z,43.60
2019-04-29T17:22:25.559Z,43.50
2019-04-29T17:24:41.881Z,44.00
2019-04-29T17:27:15.152Z,44.10
2019-04-29T17:29:49.348Z,44.30
2019-04-29T17:32:42.937Z,44.30
2019-04-29T17:35:03.233Z,44.70
2019-04-29T17:35:17.215Z,39.70
2019-04-29T17:37:32.268Z,44.50
2019-04-29T17:40:01.046Z,44.60
2019-04-29T17:42:31.319Z,44.70
2019-04-29T17:45:10.012Z,45.10
2019-04-29T17:47:49.124Z,45.20
2019-04-29T17:50:31.628Z,45.10
2019-04-29T17:53:00.417Z,45.20
2019-04-29T17:55:38.654Z,45.90
2019-04-29T17:58:06.030Z,45.30
2019-04-29T18:00:44.517Z,45.60
2019-04-29T18:03:30.092Z,45.80
2019-04-29T18:06:05.322Z,45.70
2019-04-29T18:08:41.245Z,45.60
2019-04-29T18:11:10.010Z,45.70
2019-04-29T18:13:38.754Z,45.80
2019-04-29T18:16:17.577Z,45.90
2019-04-29T18:18:49.209Z,45.90
2019-04-29T18:21:19.421Z,45.80
2019-04-29T18:23:51.507Z,45.90
2019-04-29T18:26:25.708Z,45.90
2019-04-29T18:28:58.307Z,45.60
2019-04-29T18:31:26.440Z,45.90
2019-04-29T18:33:58.131Z,46.00
2019-04-29T18:36:26.796Z,46.10
2019-04-29T18:38:55.840Z,45.90
2019-04-29T18:41:28.104Z,46.00
2019-04-29T18:43:56.418Z,46.30
2019-04-29T18:46:25.889Z,46.30
2019-04-29T18:48:55.962Z,46.30
2019-04-29T18:51:28.702Z,46.50
2019-04-29T18:53:55.687Z,46.60
2019-04-29T18:56:25.989Z,46.50
2019-04-29T18:58:55.560Z,47.00
2019-04-29T19:01:28.834Z,47.00
2019-04-29T19:03:59.343Z,47.00
2019-04-29T19:06:28.322Z,46.90
2019-04-29T19:09:01.548Z,47.60
2019-04-29T19:11:32.182Z,47.50
2019-04-29T19:13:57.978Z,47.80
2019-04-29T19:16:27.596Z,48.10
2019-04-29T19:19:00.223Z,48.30
2019-04-29T19:21:30.404Z,48.30
2019-04-29T19:24:00.551Z,48.60
2019-04-29T19:26:27.766Z,48.70
2019-04-29T19:28:56.857Z,49.10
2019-04-29T19:31:25.749Z,49.10
2019-04-29T19:33:55.107Z,49.00
2019-04-29T19:36:25.105Z,49.40
2019-04-29T19:38:55.073Z,49.50
2019-04-29T19:41:25.630Z,49.70
2019-04-29T19:43:55.459Z,49.90
2019-04-29T19:46:36.434Z,50.30
2019-04-29T19:49:00.079Z,50.20
2019-04-29T19:51:25.903Z,50.20
2019-04-29T19:53:55.207Z,50.40
2019-04-29T19:56:25.192Z,50.90
2019-04-29T19:58:57.296Z,50.90
2019-04-29T20:01:28.346Z,51.10
2019-04-29T20:04:15.603Z,51.00
2019-04-29T20:06:40.470Z,51.10
2019-04-29T20:09:17.426Z,50.90
2019-04-29T20:11:41.225Z,50.40
2019-04-29T20:14:18.991Z,50.20
2019-04-29T20:16:44.702Z,50.20
2019-04-29T20:19:20.285Z,50.10
2019-04-29T20:21:46.033Z,49.90
2019-04-29T20:24:17.497Z,49.70
2019-04-29T20:26:46.900Z,49.30
2019-04-29T20:29:16.476Z,49.40
2019-04-29T20:31:51.546Z,49.40
2019-04-29T20:34:23.643Z,49.30
2019-04-29T20:36:47.954Z,49.30
2019-04-29T20:39:23.033Z,49.20
2019-04-29T20:41:49.048Z,49.30
2019-04-29T20:44:18.138Z,49.20
2019-04-29T20:47:13.125Z,49.30
2019-04-29T20:49:18.058Z,49.00
2019-04-29T20:51:52.202Z,49.10
2019-04-29T20:54:29.544Z,48.70
2019-04-29T20:57:04.732Z,48.80
2019-04-29T20:59:29.057Z,49.10
2019-04-29T21:02:12.031Z,49.10
2019-04-29T21:04:39.293Z,49.10
2019-04-29T21:07:04.385Z,48.90
2019-04-29T21:09:35.622Z,48.90
2019-04-29T21:12:15.975Z,49.10
2019-04-29T21:14:53.219Z,49.20
2019-04-29T21:17:31.242Z,49.00
2019-04-29T21:19:53.123Z,49.10
2019-04-29T21:22:23.663Z,49.30
2019-04-29T21:24:53.786Z,49.80
2019-04-29T21:27:23.536Z,49.90
2019-04-29T21:29:54.089Z,49.80
2019-04-29T21:32:23.182Z,49.70
2019-04-29T21:34:55.262Z,49.70
2019-04-29T21:37:25.886Z,49.70
2019-04-29T21:39:56.283Z,49.70
2019-04-29T21:42:35.137Z,49.80
2019-04-29T21:45:03.534Z,49.80
2019-04-29T21:47:41.656Z,49.60
2019-04-29T21:50:01.237Z,49.90
2019-04-29T21:52:29.954Z,49.60
2019-04-29T21:54:58.732Z,49.90
2019-04-29T21:57:27.401Z,50.00
2019-04-29T21:59:56.070Z,49.80
2019-04-29T22:02:26.055Z,49.90
2019-04-29T22:04:55.420Z,50.00
2019-04-29T22:07:25.851Z,50.00
2019-04-29T22:09:55.668Z,50.20
2019-04-29T22:12:24.854Z,50.20
2019-04-29T22:14:56.082Z,50.60
2019-04-29T22:17:28.189Z,50.60
2019-04-29T22:19:57.446Z,50.80
2019-04-29T22:22:25.287Z,50.60
2019-04-29T22:24:57.667Z,50.60
2019-04-29T22:27:24.397Z,50.60
2019-04-29T22:29:53.062Z,50.30
2019-04-29T22:32:41.043Z,50.30
2019-04-29T22:35:09.943Z,50.10
2019-04-29T22:37:38.619Z,50.10
2019-04-29T22:40:08.033Z,50.50
2019-04-29T22:42:38.283Z,49.90
2019-04-29T22:45:07.998Z,49.90
2019-04-29T22:47:36.704Z,49.90
2019-04-29T22:50:06.089Z,50.20
2019-04-29T22:52:34.830Z,50.10
2019-04-29T22:55:07.292Z,50.10
2019-04-29T22:57:35.976Z,50.00
2019-04-29T23:00:10.440Z,50.20
2019-04-29T23:02:39.347Z,50.40
2019-04-29T23:05:08.123Z,50.50
2019-04-29T23:07:37.760Z,50.50
2019-04-29T23:10:07.554Z,50.80
2019-04-29T23:12:36.283Z,50.70
2019-04-29T23:15:07.942Z,50.80
2019-04-29T23:17:36.639Z,50.70
2019-04-29T23:20:25.426Z,50.70
2019-04-29T23:22:56.917Z,50.90
2019-04-29T23:25:31.077Z,51.00
2019-04-29T23:27:59.778Z,50.90
2019-04-29T23:30:29.066Z,50.80
2019-04-29T23:32:57.874Z,50.50
2019-04-29T23:35:26.863Z,50.70
2019-04-29T23:37:58.752Z,50.50
2019-04-29T23:40:26.187Z,50.50
2019-04-29T23:42:55.420Z,50.90
2019-04-29T23:45:25.351Z,51.00
2019-04-29T23:47:55.548Z,50.90
2019-04-29T23:50:25.793Z,50.90
2019-04-29T23:52:55.724Z,50.90
2019-04-29T23:55:27.400Z,51.30
2019-04-29T23:58:02.773Z,50.60
